createdAt,value
2023-04-19T00:02:21.685Z,2.90
2023-04-19T00:04:49.317Z,2.87
2023-04-19T00:07:18.599Z,3.00
2023-04-19T00:09:46.010Z,3.10
2023-04-19T00:12:13.337Z,2.93
2023-04-19T00:14:40.714Z,3.70
2023-04-19T00:17:08.174Z,3.30
2023-04-19T00:19:35.710Z,3.33
2023-04-19T00:22:03.163Z,3.33
2023-04-19T00:24:32.733Z,3.10
2023-04-19T00:27:00.594Z,3.70
2023-04-19T00:29:28.452Z,2.90
2023-04-19T00:31:56.350Z,3.07
2023-04-19T00:34:24.836Z,3.97
2023-04-19T00:36:54.773Z,3.43
2023-04-19T00:39:22.772Z,3.57
2023-04-19T00:41:50.437Z,3.20
2023-04-19T00:44:19.759Z,3.47
2023-04-19T00:46:48.070Z,3.77
2023-04-19T00:49:19.048Z,3.30
2023-04-19T00:51:47.394Z,3.13
2023-04-19T00:54:17.168Z,2.77
2023-04-19T00:56:46.215Z,3.13
2023-04-19T00:59:16.234Z,3.37
2023-04-19T01:01:45.197Z,3.33
2023-04-19T01:04:12.989Z,3.20
2023-04-19T01:06:42.425Z,3.47
2023-04-19T01:09:12.460Z,3.33
2023-04-19T01:11:43.342Z,2.73
2023-04-19T01:14:16.786Z,3.03
2023-04-19T01:16:48.883Z,3.37
2023-04-19T01:19:16.945Z,3.20
2023-04-19T01:21:44.847Z,3.67
2023-04-19T01:24:12.738Z,3.30
2023-04-19T01:26:40.408Z,3.17
2023-04-19T01:29:08.854Z,3.43
2023-04-19T01:31:36.590Z,3.13
2023-04-19T01:34:04.975Z,3.67
2023-04-19T01:36:33.251Z,3.90
2023-04-19T01:39:00.731Z,3.27
2023-04-19T01:41:29.862Z,3.30
2023-04-19T01:43:57.371Z,3.30
2023-04-19T01:46:24.875Z,3.00
2023-04-19T01:48:52.499Z,3.77
2023-04-19T01:51:22.562Z,3.60
2023-04-19T01:53:54.692Z,3.40
2023-04-19T01:56:23.851Z,4.20
2023-04-19T01:58:51.433Z,3.60
2023-04-19T02:01:19.022Z,3.60
2023-04-19T02:03:47.189Z,3.80
2023-04-19T02:06:16.558Z,3.97
2023-04-19T02:08:49.427Z,3.87
2023-04-19T02:11:17.148Z,3.93
2023-04-19T02:13:45.018Z,3.73
2023-04-19T02:16:13.037Z,4.70
2023-04-19T02:18:41.799Z,3.80
2023-04-19T02:21:10.058Z,4.07
2023-04-19T02:23:37.513Z,3.50
2023-04-19T02:26:05.145Z,4.93
2023-04-19T02:28:33.086Z,4.33
2023-04-19T02:31:05.002Z,4.03
2023-04-19T02:33:35.472Z,4.23
2023-04-19T02:36:03.227Z,4.27
2023-04-19T02:38:31.065Z,3.50
2023-04-19T02:40:58.667Z,3.80
2023-04-19T02:43:26.110Z,3.47
2023-04-19T02:45:53.873Z,4.17
2023-04-19T02:48:23.479Z,3.90
2023-04-19T02:50:51.209Z,3.87
2023-04-19T02:53:18.765Z,3.83
2023-04-19T02:55:48.174Z,4.57
2023-04-19T02:58:19.147Z,5.27
2023-04-19T03:01:00.708Z,3.90
2023-04-19T03:03:28.387Z,4.27
2023-04-19T03:05:56.106Z,4.23
2023-04-19T03:08:23.722Z,4.10
2023-04-19T03:10:51.295Z,3.63
2023-04-19T03:13:19.313Z,3.83
2023-04-19T03:15:48.308Z,4.20
2023-04-19T03:18:18.043Z,4.23
2023-04-19T03:20:45.782Z,4.30
2023-04-19T03:23:13.451Z,4.50
2023-04-19T03:25:41.580Z,4.37
2023-04-19T03:28:21.470Z,4.07
2023-04-19T03:31:07.895Z,4.10
2023-04-19T03:33:35.928Z,4.50
2023-04-19T03:36:03.821Z,3.90
2023-04-19T03:38:31.577Z,4.30
2023-04-19T03:40:59.828Z,4.13
2023-04-19T03:43:32.932Z,3.90
2023-04-19T03:46:00.562Z,4.47
2023-04-19T03:48:28.081Z,4.47
2023-04-19T03:50:57.184Z,4.13
2023-04-19T03:53:25.126Z,4.37
2023-04-19T03:55:52.703Z,4.37
2023-04-19T03:58:20.136Z,4.10
2023-04-19T04:00:53.940Z,3.87
2023-04-19T04:03:22.906Z,5.27
2023-04-19T04:05:50.794Z,4.60
2023-04-19T04:08:18.282Z,3.83
2023-04-19T04:10:45.861Z,4.03
2023-04-19T04:13:13.877Z,3.90
2023-04-19T04:15:48.761Z,4.47
2023-04-19T04:18:17.958Z,3.77
2023-04-19T04:20:45.681Z,4.10
2023-04-19T04:23:14.389Z,4.23
2023-04-19T04:25:47.707Z,4.73
2023-04-19T04:28:16.123Z,4.43
2023-04-19T04:30:45.066Z,4.10
2023-04-19T04:33:14.236Z,4.53
2023-04-19T04:35:43.475Z,4.40
2023-04-19T04:38:24.169Z,4.10
2023-04-19T04:40:54.101Z,4.03
2023-04-19T04:43:23.036Z,3.90
2023-04-19T04:45:51.245Z,4.27
2023-04-19T04:48:19.430Z,3.97
2023-04-19T04:50:47.036Z,4.03
2023-04-19T04:53:14.609Z,4.33
2023-04-19T04:55:44.409Z,4.30
2023-04-19T04:58:13.460Z,3.80
2023-04-19T05:00:58.953Z,4.30
2023-04-19T05:03:28.050Z,4.10
2023-04-19T05:05:59.155Z,3.53
2023-04-19T05:08:27.290Z,3.73
2023-04-19T05:11:00.223Z,4.20
2023-04-19T05:13:31.246Z,3.77
2023-04-19T05:16:00.204Z,4.37
2023-04-19T05:18:28.695Z,4.67
2023-04-19T05:20:57.472Z,3.90
2023-04-19T05:23:28.570Z,3.77
2023-04-19T05:25:55.997Z,3.80
2023-04-19T05:28:25.500Z,4.20
2023-04-19T05:31:03.094Z,4.17
2023-04-19T05:33:35.126Z,3.80
2023-04-19T05:36:02.710Z,4.07
2023-04-19T05:38:30.255Z,3.93
2023-04-19T05:41:02.903Z,4.47
2023-04-19T05:43:30.327Z,4.67
2023-04-19T05:45:58.608Z,4.07
2023-04-19T05:48:26.276Z,3.50
2023-04-19T05:51:03.128Z,3.70
2023-04-19T05:53:51.498Z,3.80
2023-04-19T05:56:20.150Z,3.53
2023-04-19T05:58:47.750Z,4.95
2023-04-19T06:01:15.285Z,3.50
2023-04-19T06:03:43.314Z,3.50
2023-04-19T06:06:12.563Z,3.53
2023-04-19T06:08:41.542Z,3.53
2023-04-19T06:11:20.209Z,3.67
2023-04-19T06:13:54.438Z,3.70
2023-04-19T06:16:21.992Z,4.20
2023-04-19T06:18:49.524Z,3.87
2023-04-19T06:21:17.031Z,3.70
2023-04-19T06:23:44.373Z,3.50
2023-04-19T06:26:11.828Z,3.17
2023-04-19T06:28:39.179Z,3.13
2023-04-19T06:31:06.572Z,3.50
2023-04-19T06:33:33.945Z,3.50
2023-04-19T06:36:01.428Z,3.30
2023-04-19T06:38:28.978Z,3.13
2023-04-19T06:40:56.328Z,3.50
2023-04-19T06:43:23.732Z,3.27
2023-04-19T06:45:58.606Z,3.57
2023-04-19T06:48:26.382Z,3.27
2023-04-19T06:50:53.729Z,3.30
2023-04-19T06:53:21.192Z,3.27
2023-04-19T06:55:48.945Z,2.93
2023-04-19T06:58:16.316Z,3.67
2023-04-19T07:00:43.700Z,2.70
2023-04-19T07:03:11.675Z,3.43
2023-04-19T07:05:39.157Z,3.20
2023-04-19T07:08:06.656Z,2.80
2023-04-19T07:10:33.976Z,3.17
2023-04-19T07:13:01.388Z,3.30
2023-04-19T07:15:28.812Z,2.70
2023-04-19T07:17:56.179Z,2.97
2023-04-19T07:20:23.588Z,3.23
2023-04-19T07:22:50.960Z,3.20
2023-04-19T07:25:18.770Z,2.57
2023-04-19T07:27:47.075Z,3.10
2023-04-19T07:30:14.605Z,2.77
2023-04-19T07:32:42.161Z,2.83
2023-04-19T07:35:09.893Z,2.80
2023-04-19T07:37:38.772Z,3.33
2023-04-19T07:40:07.402Z,2.80
2023-04-19T07:42:34.862Z,2.57
2023-04-19T07:45:02.192Z,2.50
2023-04-19T07:47:29.758Z,2.30
2023-04-19T07:49:57.210Z,2.93
2023-04-19T07:52:25.037Z,2.83
2023-04-19T07:54:52.418Z,2.57
2023-04-19T07:57:20.869Z,2.77
2023-04-19T07:59:48.245Z,2.77
2023-04-19T08:02:17.281Z,2.53
2023-04-19T08:04:48.399Z,2.40
2023-04-19T08:07:16.509Z,2.50
2023-04-19T08:09:44.148Z,2.70
2023-04-19T08:12:17.185Z,2.33
2023-04-19T08:15:02.654Z,2.43
2023-04-19T08:17:42.094Z,2.40
2023-04-19T08:20:11.676Z,1.80
2023-04-19T08:22:40.089Z,2.10
2023-04-19T08:25:08.447Z,2.17
2023-04-19T08:27:36.573Z,2.00
2023-04-19T08:30:04.660Z,2.07
2023-04-19T08:32:32.766Z,2.07
2023-04-19T08:35:01.359Z,2.27
2023-04-19T08:37:28.859Z,2.10
2023-04-19T08:39:56.473Z,2.60
2023-04-19T08:42:33.194Z,2.50
2023-04-19T08:47:52.000Z,2.10
2023-04-19T08:50:33.174Z,2.00
2023-04-19T08:55:34.345Z,1.97
2023-04-19T08:58:04.187Z,2.33
2023-04-19T09:00:34.637Z,1.90
2023-04-19T09:03:02.327Z,2.00
2023-04-19T09:05:30.084Z,1.83
2023-04-19T09:08:17.677Z,1.70
2023-04-19T09:10:58.591Z,1.83
2023-04-19T09:13:26.395Z,1.80
2023-04-19T09:15:54.625Z,1.80
2023-04-19T09:18:22.053Z,1.73
2023-04-19T09:20:49.926Z,2.10
2023-04-19T09:23:18.748Z,1.80
2023-04-19T09:28:26.639Z,1.57
2023-04-19T09:31:06.704Z,1.70
2023-04-19T09:33:39.951Z,1.40
2023-04-19T09:36:08.247Z,1.57
2023-04-19T09:38:53.898Z,1.53
2023-04-19T09:41:21.865Z,1.60
2023-04-19T09:46:36.594Z,1.70
2023-04-19T09:49:25.014Z,1.50
2023-04-19T09:51:56.062Z,1.70
2023-04-19T09:54:24.967Z,1.33
2023-04-19T09:56:54.812Z,1.23
2023-04-19T09:59:26.403Z,1.60
2023-04-19T10:01:56.950Z,1.60
2023-04-19T10:04:38.466Z,1.60
2023-04-19T10:09:52.470Z,1.50
2023-04-19T10:12:46.288Z,1.70
2023-04-19T10:15:12.649Z,1.60
2023-04-19T10:17:40.363Z,1.67
2023-04-19T10:20:10.587Z,1.60
2023-04-19T10:22:38.873Z,1.67
2023-04-19T10:25:13.076Z,1.53
2023-04-19T10:27:42.166Z,1.17
2023-04-19T10:30:18.238Z,1.70
2023-04-19T10:32:46.989Z,1.67
2023-04-19T10:35:18.863Z,1.40
2023-04-19T10:38:06.140Z,1.30
2023-04-19T10:40:52.419Z,1.60
2023-04-19T10:43:20.563Z,1.57
2023-04-19T10:45:48.652Z,1.40
2023-04-19T10:48:33.410Z,1.20
2023-04-19T10:51:07.649Z,1.40
2023-04-19T10:53:49.333Z,1.70
2023-04-19T10:56:17.750Z,1.40
2023-04-19T10:59:11.391Z,1.10
2023-04-19T11:01:40.013Z,1.20
2023-04-19T11:04:08.214Z,1.40
2023-04-19T11:06:38.849Z,1.30
2023-04-19T11:09:07.297Z,1.20
2023-04-19T11:11:38.230Z,1.30
2023-04-19T11:14:08.837Z,1.43
2023-04-19T11:16:45.522Z,1.20
2023-04-19T11:19:17.385Z,1.23
2023-04-19T11:21:48.382Z,1.40
2023-04-19T11:24:20.675Z,1.40
2023-04-19T11:26:50.168Z,1.27
2023-04-19T11:29:17.869Z,1.27
2023-04-19T11:31:46.676Z,1.40
2023-04-19T11:34:14.434Z,1.30
2023-04-19T11:36:49.209Z,1.87
2023-04-19T11:39:16.649Z,1.30
2023-04-19T11:41:44.272Z,1.30
2023-04-19T11:44:20.369Z,1.30
2023-04-19T11:47:05.166Z,1.47
2023-04-19T11:49:34.330Z,2.00
2023-04-19T11:52:05.300Z,1.60
2023-04-19T11:54:33.907Z,1.40
2023-04-19T11:57:05.480Z,1.80
2023-04-19T11:59:33.612Z,1.37
2023-04-19T12:02:08.041Z,1.43
2023-04-19T12:04:36.083Z,1.70
2023-04-19T12:07:04.653Z,2.30
2023-04-19T12:09:34.288Z,2.10
2023-04-19T12:12:02.241Z,2.00
2023-04-19T12:14:30.494Z,2.20
2023-04-19T12:17:15.956Z,2.40
2023-04-19T12:19:44.646Z,1.90
2023-04-19T12:22:24.166Z,2.00
2023-04-19T12:24:52.166Z,2.30
2023-04-19T12:27:19.887Z,2.10
2023-04-19T12:29:47.308Z,2.63
2023-04-19T12:32:16.131Z,2.10
2023-04-19T12:34:46.233Z,2.40
2023-04-19T12:37:13.594Z,2.00
2023-04-19T12:39:42.214Z,2.30
2023-04-19T12:42:09.606Z,2.33
2023-04-19T12:44:37.031Z,2.57
2023-04-19T12:47:04.501Z,2.47
2023-04-19T12:49:33.496Z,2.80
2023-04-19T12:52:01.268Z,2.20
2023-04-19T12:54:29.243Z,2.40
2023-04-19T12:56:57.626Z,2.37
2023-04-19T12:59:25.089Z,2.03
2023-04-19T13:01:52.971Z,2.23
2023-04-19T13:04:22.017Z,2.17
2023-04-19T13:06:49.848Z,2.30
2023-04-19T13:09:19.381Z,1.90
2023-04-19T13:11:46.819Z,2.30
2023-04-19T13:14:14.809Z,1.93
2023-04-19T13:16:42.491Z,1.93
2023-04-19T13:19:09.930Z,1.90
2023-04-19T13:21:37.297Z,1.90
2023-04-19T13:24:04.919Z,1.77
2023-04-19T13:26:34.338Z,2.00
2023-04-19T13:29:01.826Z,1.73
2023-04-19T13:31:29.298Z,2.13
2023-04-19T13:33:56.905Z,1.47
2023-04-19T13:36:24.348Z,1.60
2023-04-19T13:38:52.183Z,1.67
2023-04-19T13:41:19.775Z,1.97
2023-04-19T13:43:50.603Z,2.10
2023-04-19T13:46:18.353Z,1.60
2023-04-19T13:48:45.842Z,1.87
2023-04-19T13:51:13.357Z,1.80
2023-04-19T13:53:40.855Z,2.20
2023-04-19T13:56:09.733Z,1.90
2023-04-19T13:58:37.526Z,1.70
2023-04-19T14:01:04.951Z,1.97
2023-04-19T14:03:32.934Z,2.27
2023-04-19T14:06:00.486Z,1.80
2023-04-19T14:08:27.913Z,1.60
2023-04-19T14:10:55.542Z,2.30
2023-04-19T14:13:25.323Z,2.10
2023-04-19T14:15:56.658Z,2.10
2023-04-19T14:18:25.850Z,2.13
2023-04-19T14:20:53.424Z,2.00
2023-04-19T14:23:24.073Z,2.00
2023-04-19T14:25:54.870Z,1.93
2023-04-19T14:28:26.434Z,2.20
2023-04-19T14:31:00.407Z,2.03
2023-04-19T14:33:43.242Z,1.77
2023-04-19T14:36:13.681Z,1.83
2023-04-19T14:38:43.690Z,1.97
2023-04-19T14:41:19.465Z,1.60
2023-04-19T14:43:56.393Z,1.60
2023-04-19T14:46:34.084Z,1.80
2023-04-19T14:49:06.954Z,1.60
2023-04-19T14:51:36.897Z,1.53
2023-04-19T14:54:06.648Z,1.30
2023-04-19T14:56:42.188Z,1.40
2023-04-19T14:59:25.100Z,1.50
2023-04-19T15:02:00.712Z,1.50
2023-04-19T15:04:33.192Z,1.33
2023-04-19T15:07:08.988Z,1.30
2023-04-19T15:09:52.565Z,1.57
2023-04-19T15:12:26.770Z,1.40
2023-04-19T15:15:04.736Z,1.60
2023-04-19T15:17:46.248Z,1.20
2023-04-19T15:20:20.797Z,1.43
2023-04-19T15:23:05.562Z,1.40
2023-04-19T15:26:44.577Z,1.37
2023-04-19T15:29:41.537Z,1.63
2023-04-19T15:32:09.408Z,1.83
2023-04-19T15:34:42.803Z,1.60
2023-04-19T15:37:10.554Z,1.97
2023-04-19T15:39:37.981Z,1.50
2023-04-19T15:42:06.738Z,1.60
2023-04-19T15:44:36.163Z,1.60
2023-04-19T15:47:21.421Z,1.70
2023-04-19T15:49:50.292Z,1.80
2023-04-19T15:52:21.851Z,1.87
2023-04-19T15:54:51.017Z,1.50
2023-04-19T15:57:18.537Z,1.80
2023-04-19T15:59:45.926Z,1.67
2023-04-19T16:02:13.462Z,1.60
2023-04-19T16:04:40.982Z,1.90
2023-04-19T16:07:08.574Z,1.80
2023-04-19T16:09:36.644Z,1.77
2023-04-19T16:12:04.139Z,2.03
2023-04-19T16:14:31.519Z,1.90
2023-04-19T16:17:01.076Z,1.63
2023-04-19T16:19:28.466Z,1.70
2023-04-19T16:21:56.897Z,1.43
2023-04-19T16:24:24.256Z,2.30
2023-04-19T16:26:51.697Z,1.77
2023-04-19T16:29:19.347Z,1.30
2023-04-19T16:31:47.593Z,1.80
2023-04-19T16:34:16.711Z,1.77
2023-04-19T16:36:46.879Z,1.80
2023-04-19T16:39:15.010Z,1.77
2023-04-19T16:41:43.866Z,1.90
2023-04-19T16:44:11.962Z,1.77
2023-04-19T16:46:39.493Z,1.77
2023-04-19T16:49:07.185Z,1.60
2023-04-19T16:51:34.499Z,1.90
2023-04-19T16:54:01.810Z,1.93
2023-04-19T16:56:29.192Z,2.30
2023-04-19T16:58:56.669Z,1.90
2023-04-19T17:01:24.270Z,2.00
2023-04-19T17:03:51.822Z,1.73
2023-04-19T17:06:19.260Z,1.97
2023-04-19T17:08:46.632Z,1.70
2023-04-19T17:11:14.078Z,1.90
2023-04-19T17:13:41.377Z,1.63
2023-04-19T17:16:09.023Z,2.20
2023-04-19T17:18:36.364Z,1.57
2023-04-19T17:21:03.781Z,2.03
2023-04-19T17:23:31.222Z,1.90
2023-04-19T17:25:58.717Z,2.13
2023-04-19T17:28:26.150Z,2.20
2023-04-19T17:30:53.473Z,2.03
2023-04-19T17:33:20.905Z,1.93
2023-04-19T17:35:48.323Z,2.20
2023-04-19T17:38:16.187Z,2.10
2023-04-19T17:40:43.679Z,1.80
2023-04-19T17:43:11.164Z,1.97
2023-04-19T17:45:38.716Z,1.93
2023-04-19T17:48:06.583Z,2.10
2023-04-19T17:50:33.967Z,2.37
2023-04-19T17:53:01.294Z,1.97
2023-04-19T17:55:28.684Z,2.07
2023-04-19T17:57:56.234Z,2.30
2023-04-19T18:00:23.837Z,2.07
2023-04-19T18:02:51.541Z,2.10
2023-04-19T18:05:19.034Z,1.83
2023-04-19T18:07:47.219Z,2.03
2023-04-19T18:10:14.536Z,2.10
2023-04-19T18:12:41.828Z,1.93
2023-04-19T18:15:09.458Z,2.00
2023-04-19T18:17:36.991Z,1.87
2023-04-19T18:20:06.055Z,1.80
2023-04-19T18:22:33.557Z,1.77
2023-04-19T18:25:00.839Z,1.80
2023-04-19T18:27:32.295Z,1.80
2023-04-19T18:30:03.155Z,1.70
2023-04-19T18:32:32.035Z,1.53
2023-04-19T18:34:59.517Z,2.00
2023-04-19T18:37:26.812Z,1.50
2023-04-19T18:39:54.095Z,1.43
2023-04-19T18:42:21.587Z,1.70
2023-04-19T18:44:54.154Z,1.40
2023-04-19T18:47:22.456Z,1.63
2023-04-19T18:50:03.367Z,2.20
2023-04-19T18:52:32.509Z,1.60
2023-04-19T18:55:00.646Z,1.50
2023-04-19T18:57:28.199Z,1.70
2023-04-19T18:59:57.035Z,1.43
2023-04-19T19:02:24.543Z,1.50
2023-04-19T19:04:57.729Z,1.50
2023-04-19T19:10:01.439Z,1.53
2023-04-19T19:12:29.342Z,1.57
2023-04-19T19:14:56.862Z,1.53
2023-04-19T19:17:28.048Z,1.33
2023-04-19T19:19:55.718Z,1.47
2023-04-19T19:22:28.383Z,1.67
2023-04-19T19:24:56.794Z,1.67
2023-04-19T19:27:24.184Z,1.37
2023-04-19T19:29:51.490Z,1.60
2023-04-19T19:32:19.557Z,1.27
2023-04-19T19:37:18.281Z,1.60
2023-04-19T19:39:46.343Z,1.60
2023-04-19T19:42:16.651Z,1.57
2023-04-19T19:44:44.468Z,1.37
2023-04-19T19:47:12.118Z,1.37
2023-04-19T19:52:10.018Z,1.40
2023-04-19T19:54:37.360Z,1.60
2023-04-19T19:59:35.411Z,1.40
2023-04-19T20:02:03.687Z,1.33
2023-04-19T20:04:32.107Z,1.47
2023-04-19T20:09:30.054Z,1.40
2023-04-19T20:11:57.607Z,1.27
2023-04-19T20:14:25.370Z,1.40
2023-04-19T20:16:52.962Z,1.60
2023-04-19T20:19:20.328Z,1.70
2023-04-19T20:21:47.702Z,1.77
2023-04-19T20:24:15.247Z,1.10
2023-04-19T20:26:42.868Z,1.50
2023-04-19T20:29:10.221Z,1.67
2023-04-19T20:31:37.555Z,1.40
2023-04-19T20:34:04.949Z,1.63
2023-04-19T20:36:33.213Z,1.57
2023-04-19T20:39:04.948Z,1.60
2023-04-19T20:41:33.358Z,1.67
2023-04-19T20:44:01.346Z,1.53
2023-04-19T20:46:28.856Z,1.40
2023-04-19T20:48:56.504Z,1.40
2023-04-19T20:51:23.863Z,1.27
2023-04-19T20:53:51.168Z,1.40
2023-04-19T20:56:18.507Z,1.50
2023-04-19T20:58:45.849Z,1.50
2023-04-19T21:01:17.156Z,1.70
2023-04-19T21:03:45.272Z,1.60
2023-04-19T21:06:12.969Z,1.60
2023-04-19T21:08:40.334Z,1.60
2023-04-19T21:11:07.708Z,1.80
2023-04-19T21:13:35.191Z,1.70
2023-04-19T21:16:02.786Z,1.80
2023-04-19T21:18:30.898Z,1.53
2023-04-19T21:20:58.712Z,1.67
2023-04-19T21:23:26.065Z,1.60
2023-04-19T21:25:53.497Z,1.30
2023-04-19T21:28:21.068Z,1.40
2023-04-19T21:30:48.470Z,1.90
2023-04-19T21:33:18.152Z,1.60
2023-04-19T21:35:45.635Z,2.10
2023-04-19T21:38:13.236Z,1.90
2023-04-19T21:40:40.654Z,1.83
2023-04-19T21:43:08.163Z,1.60
2023-04-19T21:45:35.551Z,1.70
2023-04-19T21:48:02.935Z,1.60
2023-04-19T21:50:30.377Z,1.57
2023-04-19T21:52:57.710Z,1.50
2023-04-19T21:55:25.231Z,1.77
2023-04-19T21:57:52.627Z,1.80
2023-04-19T22:00:19.987Z,1.77
2023-04-19T22:02:47.408Z,1.57
2023-04-19T22:05:14.940Z,1.53
2023-04-19T22:07:42.244Z,1.70
2023-04-19T22:10:09.891Z,1.60
2023-04-19T22:12:45.021Z,1.40
2023-04-19T22:15:18.911Z,1.80
2023-04-19T22:17:46.285Z,1.80
2023-04-19T22:20:14.799Z,1.30
2023-04-19T22:22:42.265Z,1.70
2023-04-19T22:25:09.824Z,1.70
2023-04-19T22:27:37.155Z,1.33
2023-04-19T22:30:05.205Z,1.50
2023-04-19T22:32:32.649Z,1.50
2023-04-19T22:34:59.950Z,1.40
2023-04-19T22:37:27.664Z,1.40
2023-04-19T22:39:54.998Z,1.60
2023-04-19T22:42:22.834Z,1.20
2023-04-19T22:44:50.458Z,1.50
2023-04-19T22:47:17.838Z,1.53
2023-04-19T22:49:45.342Z,1.30
2023-04-19T22:52:12.787Z,1.37
2023-04-19T22:54:40.232Z,1.30
2023-04-19T22:57:07.629Z,1.30
2023-04-19T22:59:35.003Z,1.40
2023-04-19T23:02:02.417Z,1.40
2023-04-19T23:04:34.007Z,1.20
2023-04-19T23:07:01.445Z,1.40
2023-04-19T23:09:30.041Z,1.33
2023-04-19T23:12:00.723Z,1.50
2023-04-19T23:14:29.151Z,1.43
2023-04-19T23:16:57.222Z,1.30
2023-04-19T23:19:25.413Z,1.50
2023-04-19T23:21:52.837Z,1.43
2023-04-19T23:24:20.370Z,1.20
2023-04-19T23:26:47.673Z,1.37
2023-04-19T23:29:15.209Z,1.23
2023-04-19T23:31:42.846Z,1.30
2023-04-19T23:34:10.474Z,1.23
2023-04-19T23:36:37.910Z,1.20
2023-04-19T23:39:05.273Z,1.37
2023-04-19T23:41:32.744Z,1.50
2023-04-19T23:44:00.427Z,1.43
2023-04-19T23:46:27.873Z,1.10
2023-04-19T23:48:55.297Z,1.33
2023-04-19T23:51:22.629Z,1.13
2023-04-19T23:53:49.995Z,1.50
2023-04-19T23:56:17.353Z,1.30
2023-04-19T23:58:44.784Z,1.40
